Time;durP1;ratioP1;P1;durP2;ratioP2;P2;SDS_P1;SDS_P2;PMS_P1;PMS_P2;Temp;Humidity;BMP_temperature;BMP_pressure;BME280_temperature;BME280_humidity;BME280_pressure;Samples;Min_cycle;Max_cycle;Signal;HPM_P1;HPM_P2
2023/03/30 00:00:17;;;;;;;31.58;5.32;;;;;;;13.58;100.00;100391.50;5071068;28;20035;-49
2023/03/30 00:02:48;;;;;;;18.50;5.20;;;;;;;13.51;100.00;100382.59;5070204;28;20391;-49
2023/03/30 00:05:14;;;;;;;20.98;5.70;;;;;;;13.44;100.00;100370.97;5071532;28;20089;-47
2023/03/30 00:07:46;;;;;;;28.45;4.30;;;;;;;13.43;100.00;100377.41;5071306;28;20025;-47
2023/03/30 00:10:17;;;;;;;26.65;5.55;;;;;;;13.41;100.00;100374.09;5071928;28;20032;-48
2023/03/30 00:12:45;;;;;;;28.77;5.70;;;;;;;13.39;100.00;100374.28;5072178;28;20039;-48
2023/03/30 00:15:12;;;;;;;24.67;5.40;;;;;;;13.35;100.00;100382.00;5071185;28;20036;-49
2023/03/30 00:17:39;;;;;;;31.80;5.05;;;;;;;13.33;100.00;100378.69;5071798;28;20086;-47
2023/03/30 00:20:10;;;;;;;22.52;5.13;;;;;;;13.29;100.00;100390.94;5072615;28;20095;-49
2023/03/30 00:22:36;;;;;;;20.55;4.40;;;;;;;13.27;100.00;100395.75;5092256;28;20032;-48
2023/03/30 00:25:02;;;;;;;21.77;4.90;;;;;;;13.25;100.00;100386.97;5087111;28;20136;-49
2023/03/30 00:27:27;;;;;;;21.73;4.82;;;;;;;13.23;100.00;100399.03;5071593;28;20027;-48
2023/03/30 00:29:53;;;;;;;27.83;5.22;;;;;;;13.25;100.00;100397.78;5069764;28;20031;-47
2023/03/30 00:32:18;;;;;;;26.23;4.82;;;;;;;13.25;100.00;100386.97;5074085;28;20115;-48
2023/03/30 00:34:43;;;;;;;23.95;5.00;;;;;;;13.23;100.00;100383.66;5090040;28;20084;-47
2023/03/30 00:37:10;;;;;;;23.88;4.45;;;;;;;13.23;100.00;100382.81;5072015;28;20044;-48
2023/03/30 00:39:36;;;;;;;33.70;4.90;;;;;;;13.20;100.00;100392.19;5069181;28;20442;-49
2023/03/30 00:42:01;;;;;;;21.38;5.13;;;;;;;13.16;100.00;100399.03;5070924;28;20028;-51
2023/03/30 00:45:04;;;;;;;25.67;5.32;;;;;;;13.12;100.00;100392.41;5068964;28;20036;-49
2023/03/30 00:47:30;;;;;;;28.13;5.43;;;;;;;13.04;100.00;100379.13;5050535;28;20053;-48
2023/03/30 00:49:55;;;;;;;43.22;6.93;;;;;;;12.96;100.00;100382.88;5060430;28;20527;-48
2023/03/30 00:52:23;;;;;;;28.15;5.32;;;;;;;12.93;100.00;100394.91;5069030;28;20025;-49
2023/03/30 00:54:50;;;;;;;25.80;4.78;;;;;;;12.92;100.00;100377.03;5069666;28;20062;-49
2023/03/30 00:57:16;;;;;;;24.55;4.63;;;;;;;12.91;100.00;100390.75;5069148;28;20020;-48
2023/03/30 00:59:41;;;;;;;37.67;5.40;;;;;;;12.86;100.00;100394.06;5068633;28;20384;-47
2023/03/30 01:02:07;;;;;;;25.48;5.18;;;;;;;12.87;100.00;100386.78;5069384;28;20025;-51
2023/03/30 01:04:36;;;;;;;20.13;4.20;;;;;;;12.85;100.00;100397.81;5070775;28;20111;-49
2023/03/30 01:07:03;;;;;;;21.85;4.60;;;;;;;12.81;100.00;100380.38;5070825;28;20036;-51
2023/03/30 01:09:28;;;;;;;26.17;5.22;;;;;;;12.73;100.00;100378.69;5068657;28;20023;-49
2023/03/30 01:11:54;;;;;;;20.75;5.13;;;;;;;12.70;100.00;100372.91;5073757;28;20027;-48
2023/03/30 01:14:19;;;;;;;28.52;4.32;;;;;;;12.66;100.00;100363.53;5089280;28;20035;-47
2023/03/30 01:16:54;;;;;;;29.55;6.13;;;;;;;12.62;100.00;100359.59;5090578;28;20131;-49
2023/03/30 01:19:42;;;;;;;33.53;5.25;;;;;;;12.60;100.00;100361.66;5079266;28;20020;-48
2023/03/30 01:22:13;;;;;;;28.70;4.47;;;;;;;12.58;100.00;100361.88;5070141;28;20024;-49
2023/03/30 01:24:48;;;;;;;30.40;4.57;;;;;;;12.59;100.00;100360.03;5069197;28;20447;-47
2023/03/30 01:27:15;;;;;;;40.35;5.50;;;;;;;12.58;100.00;100361.88;5070036;28;20480;-48
2023/03/30 01:30:00;;;;;;;26.17;4.25;;;;;;;12.57;100.00;100354.00;5067613;28;20032;-51
2023/03/30 01:32:36;;;;;;;25.40;4.38;;;;;;;12.55;100.00;100356.06;5068022;28;20503;-50
2023/03/30 01:35:41;;;;;;;21.52;4.80;;;;;;;12.56;100.00;100355.00;5054066;28;20056;-48
2023/03/30 01:38:25;;;;;;;33.33;4.55;;;;;;;12.55;100.00;100343.38;5069196;28;20043;-49
2023/03/30 01:41:08;;;;;;;22.92;4.75;;;;;;;12.54;100.00;100346.31;5068657;28;20086;-49
2023/03/30 01:43:46;;;;;;;22.25;4.25;;;;;;;12.49;100.00;100338.81;5068235;28;20060;-48
2023/03/30 01:46:31;;;;;;;42.35;5.03;;;;;;;12.46;100.00;100334.69;5068543;28;20468;-49
2023/03/30 01:49:00;;;;;;;24.10;4.53;;;;;;;12.47;100.00;100341.72;5067494;28;20106;-49
2023/03/30 01:51:32;;;;;;;33.20;4.80;;;;;;;12.45;100.00;100349.22;5070067;28;20129;-49
2023/03/30 01:54:05;;;;;;;32.60;4.80;;;;;;;12.46;100.00;100345.47;5069057;28;20033;-48
2023/03/30 01:56:50;;;;;;;40.17;5.00;;;;;;;12.44;100.00;100355.63;5069922;28;20462;-49
2023/03/30 01:59:23;;;;;;;27.35;5.07;;;;;;;12.41;100.00;100353.34;5068936;28;20124;-47
2023/03/30 02:01:52;;;;;;;19.58;4.20;;;;;;;12.40;100.00;100378.69;5087336;28;20085;-48
2023/03/30 02:04:20;;;;;;;30.52;4.50;;;;;;;12.40;100.00;100367.91;5088406;28;20044;-48
2023/03/30 02:06:51;;;;;;;34.20;4.75;;;;;;;12.40;100.00;100361.63;5088305;28;20406;-50
2023/03/30 02:09:18;;;;;;;29.67;4.13;;;;;;;12.40;100.00;100359.81;5077873;28;20105;-48
2023/03/30 02:11:47;;;;;;;41.13;4.53;;;;;;;12.43;100.00;100363.94;5068292;28;20028;-46
2023/03/30 02:14:15;;;;;;;30.23;3.88;;;;;;;12.40;100.00;100367.03;5068104;28;20170;-47
2023/03/30 02:16:44;;;;;;;40.05;5.10;;;;;;;12.42;100.00;100382.00;5068421;28;20594;-48
2023/03/30 02:19:10;;;;;;;28.10;4.80;;;;;;;12.42;100.00;100359.56;5072815;28;20020;-50
2023/03/30 02:21:35;;;;;;;38.00;4.30;;;;;;;12.43;100.00;100361.25;5072292;28;20473;-49
2023/03/30 02:24:02;;;;;;;27.30;3.88;;;;;;;12.42;100.00;100359.56;5070258;28;20293;-48
2023/03/30 02:26:28;;;;;;;38.40;4.90;;;;;;;12.41;100.00;100356.06;5068108;28;20020;-50
2023/03/30 02:28:54;;;;;;;34.67;5.28;;;;;;;12.46;100.00;100347.34;5068467;28;20024;-48
2023/03/30 02:31:21;;;;;;;32.28;5.60;;;;;;;12.42;100.00;100348.78;5088043;28;20032;-48
2023/03/30 02:34:21;;;;;;;26.90;4.20;;;;;;;12.40;100.00;100340.91;5088212;28;20028;-48
2023/03/30 02:37:00;;;;;;;40.15;4.85;;;;;;;12.39;100.00;100350.03;5065794;28;20044;-47
2023/03/30 02:39:34;;;;;;;19.58;3.42;;;;;;;12.39;100.00;100339.22;5076574;28;20496;-49
2023/03/30 02:42:18;;;;;;;22.33;3.60;;;;;;;12.40;100.00;100337.34;5069302;28;20449;-48
2023/03/30 02:45:07;;;;;;;22.83;4.47;;;;;;;12.42;100.00;100341.50;5066755;28;20415;-48
2023/03/30 02:47:55;;;;;;;22.48;3.35;;;;;;;12.46;100.00;100334.69;5066471;28;20057;-49
2023/03/30 02:50:33;;;;;;;24.60;3.40;;;;;;;12.46;100.00;100344.66;5068000;28;20044;-47
2023/03/30 02:53:11;;;;;;;16.90;3.05;;;;;;;12.50;100.00;100335.06;5071528;28;20070;-52
2023/03/30 02:55:44;;;;;;;31.90;3.60;;;;;;;12.52;100.00;100323.03;5072677;28;20043;-48
2023/03/30 02:58:41;;;;;;;23.63;3.78;;;;;;;12.55;100.00;100316.41;5070506;28;20040;-48
2023/03/30 03:01:28;;;;;;;23.52;3.38;;;;;;;12.58;100.00;100325.94;5051415;28;20265;-49
2023/03/30 03:03:57;;;;;;;;;;;;;;;12.60;100.00;100330.09;5071876;28;20043;-49
2023/03/30 03:06:22;;;;;;;17.27;3.22;;;;;;;12.63;100.00;100345.06;5071665;28;20347;-51
2023/03/30 03:08:48;;;;;;;16.08;3.63;;;;;;;12.61;100.00;100323.69;5071724;28;20112;-48
2023/03/30 03:11:13;;;;;;;19.77;3.60;;;;;;;12.62;100.00;100314.53;5052823;28;20032;-48
2023/03/30 03:13:39;;;;;;;33.97;3.75;;;;;;;12.61;100.00;100325.53;5053145;28;20055;-48
2023/03/30 03:16:06;;;;;;;33.85;4.18;;;;;;;12.60;100.00;100316.59;5064271;28;20031;-45
2023/03/30 03:18:33;;;;;;;27.75;5.25;;;;;;;12.56;100.00;100318.06;5072749;28;20044;-52
2023/03/30 03:20:59;;;;;;;25.37;4.43;;;;;;;12.55;100.00;100326.38;5068134;28;20041;-49
2023/03/30 03:23:24;;;;;;;25.15;4.22;;;;;;;12.55;100.00;100312.88;5072335;28;20054;-47
2023/03/30 03:25:50;;;;;;;22.50;3.47;;;;;;;12.51;100.00;100321.38;5071561;28;20376;-47
2023/03/30 03:28:15;;;;;;;36.72;4.20;;;;;;;12.47;100.00;100314.72;5072547;28;20518;-47
2023/03/30 03:30:41;;;;;;;31.60;4.32;;;;;;;12.46;100.00;100328.44;5072611;28;20036;-48
2023/03/30 03:33:06;;;;;;;31.15;4.03;;;;;;;12.44;100.00;100315.16;5072471;28;20060;-48
2023/03/30 03:35:32;;;;;;;32.53;4.00;;;;;;;12.41;100.00;100312.88;5072466;28;20020;-47
2023/03/30 03:37:57;;;;;;;35.53;4.18;;;;;;;12.38;100.00;100316.00;5072587;28;20033;-48
2023/03/30 03:40:23;;;;;;;42.38;3.90;;;;;;;12.35;100.00;100312.84;5071932;28;20453;-47
2023/03/30 03:42:48;;;;;;;31.88;3.78;;;;;;;12.31;100.00;100307.03;5085438;28;20416;-50
2023/03/30 03:45:14;;;;;;;30.30;4.10;;;;;;;12.27;100.00;100303.94;5092663;28;20028;-48
2023/03/30 03:47:39;;;;;;;32.90;4.25;;;;;;;12.22;100.00;100316.38;5084522;28;20530;-50
2023/03/30 03:50:08;;;;;;;43.20;4.50;;;;;;;12.18;100.00;100302.47;5075061;28;20033;-49
2023/03/30 03:52:36;;;;;;;38.15;4.50;;;;;;;12.15;100.00;100307.44;5072456;28;20499;-46
2023/03/30 03:55:03;;;;;;;44.35;5.28;;;;;;;12.11;100.00;100311.59;5068566;28;20556;-47
2023/03/30 03:57:29;;;;;;;48.45;5.15;;;;;;;12.06;100.00;100304.94;5070181;28;20103;-48
2023/03/30 03:59:58;;;;;;;48.53;5.50;;;;;;;12.01;100.00;100315.53;5071318;28;20123;-48
2023/03/30 04:02:23;;;;;;;46.55;6.25;;;;;;;11.97;100.00;100308.84;5089601;28;20137;-47
2023/03/30 04:04:50;;;;;;;40.95;4.57;;;;;;;11.94;100.00;100301.19;5086447;28;20187;-48
2023/03/30 04:07:15;;;;;;;60.50;5.43;;;;;;;11.91;100.00;100319.66;5072026;28;20482;-49
2023/03/30 04:09:41;;;;;;;42.47;5.10;;;;;;;11.87;100.00;100324.59;5078982;28;20107;-49
2023/03/30 04:12:06;;;;;;;52.25;5.55;;;;;;;11.85;100.00;100332.06;5073238;28;20043;-47
2023/03/30 04:14:33;;;;;;;44.90;4.85;;;;;;;11.81;100.00;100328.06;5081263;28;20472;-49
2023/03/30 04:16:58;;;;;;;54.00;5.83;;;;;;;11.75;100.00;100331.59;5079962;28;20048;-47
2023/03/30 04:19:26;;;;;;;50.45;5.57;;;;;;;11.70;100.00;100331.38;5068954;28;20137;-48
2023/03/30 04:21:54;;;;;;;53.05;4.97;;;;;;;11.68;100.00;100330.72;5071794;28;20028;-48
2023/03/30 04:24:21;;;;;;;46.95;6.95;;;;;;;11.64;100.00;100333.00;5070692;28;20035;-48
2023/03/30 04:26:47;;;;;;;62.92;6.78;;;;;;;11.60;100.00;100331.72;5070546;28;20052;-49
2023/03/30 04:29:15;;;;;;;58.67;5.68;;;;;;;11.57;100.00;100318.66;5070513;28;20473;-49
2023/03/30 04:31:45;;;;;;;57.00;6.63;;;;;;;11.56;100.00;100339.41;5071685;28;20512;-51
2023/03/30 04:34:13;;;;;;;52.38;5.93;;;;;;;11.50;100.00;100324.00;5069587;28;20174;-48
2023/03/30 04:36:42;;;;;;;53.63;6.00;;;;;;;11.47;100.00;100323.59;5069004;28;20055;-49
2023/03/30 04:39:10;;;;;;;63.38;6.70;;;;;;;11.42;100.00;100310.72;5068969;28;20083;-49
2023/03/30 04:41:36;;;;;;;57.97;6.57;;;;;;;11.36;100.00;100311.53;5071014;28;20031;-47
2023/03/30 04:44:08;;;;;;;57.75;5.72;;;;;;;11.29;100.00;100302.56;5071018;28;20532;-49
2023/03/30 04:46:33;;;;;;;52.22;5.20;;;;;;;11.25;100.00;100314.78;5068590;28;20036;-49
2023/03/30 04:48:59;;;;;;;47.78;5.40;;;;;;;11.20;100.00;100302.75;5069921;28;20409;-49
2023/03/30 04:51:25;;;;;;;78.70;6.28;;;;;;;11.17;100.00;100313.91;5070197;28;20028;-47
2023/03/30 04:53:50;;;;;;;58.25;6.00;;;;;;;11.14;100.00;100292.78;5069766;28;20343;-48
2023/03/30 04:56:16;;;;;;;52.67;5.18;;;;;;;11.10;100.00;100306.81;5067479;28;20035;-48
2023/03/30 04:58:41;;;;;;;61.08;5.95;;;;;;;11.06;100.00;100292.94;5059418;28;20013;-50
2023/03/30 05:01:07;;;;;;;76.55;6.20;;;;;;;11.01;100.00;100286.50;5063897;28;20484;-49
2023/03/30 05:03:33;;;;;;;79.32;7.22;;;;;;;10.95;100.00;100285.41;5080652;28;20024;-48
2023/03/30 05:05:59;;;;;;;74.30;7.22;;;;;;;10.93;100.00;100290.19;5068264;28;20059;-50
2023/03/30 05:08:24;;;;;;;70.43;7.25;;;;;;;10.87;100.00;100307.91;5066081;28;20365;-48
2023/03/30 05:10:50;;;;;;;67.78;7.88;;;;;;;10.83;100.00;100305.84;5069089;28;20051;-48
2023/03/30 05:13:15;;;;;;;79.10;6.70;;;;;;;10.79;100.00;100296.47;5066362;28;20028;-50
2023/03/30 05:15:41;;;;;;;78.30;6.22;;;;;;;10.74;100.00;100305.13;5068938;28;20032;-49
2023/03/30 05:18:06;;;;;;;71.78;6.47;;;;;;;10.69;100.00;100304.91;5069452;28;20024;-48
2023/03/30 05:20:32;;;;;;;79.22;6.15;;;;;;;10.66;100.00;100310.66;5070191;28;20017;-49
2023/03/30 05:22:57;;;;;;;80.30;7.05;;;;;;;10.63;100.00;100319.97;5069169;28;20442;-48
2023/03/30 05:25:23;;;;;;;88.85;6.93;;;;;;;10.63;100.00;100325.34;5067078;28;20545;-46
2023/03/30 05:27:48;;;;;;;79.57;7.68;;;;;;;10.62;100.00;100315.63;5069548;28;20104;-48
2023/03/30 05:30:14;;;;;;;82.78;7.72;;;;;;;10.60;100.00;100331.13;5066880;28;20035;-50
2023/03/30 05:32:39;;;;;;;63.17;6.22;;;;;;;10.57;100.00;100320.75;5068184;28;20039;-49
2023/03/30 05:35:05;;;;;;;75.90;5.93;;;;;;;10.56;100.00;100335.25;5066914;28;20031;-51
2023/03/30 05:37:31;;;;;;;79.00;8.18;;;;;;;10.55;100.00;100341.63;5066278;28;20025;-52
2023/03/30 05:39:57;;;;;;;87.18;7.05;;;;;;;10.59;100.00;100339.41;5067629;28;20032;-50
2023/03/30 05:42:22;;;;;;;90.95;7.18;;;;;;;10.64;100.00;100337.78;5067270;28;20051;-47
2023/03/30 05:44:48;;;;;;;74.65;6.97;;;;;;;10.70;100.00;100342.38;5067886;28;20052;-49
2023/03/30 05:47:15;;;;;;;77.05;6.72;;;;;;;10.76;100.00;100344.28;5068213;28;20123;-51
2023/03/30 05:49:40;;;;;;;75.33;7.30;;;;;;;10.80;100.00;100341.22;5069900;28;20123;-47
2023/03/30 05:52:05;;;;;;;70.28;7.40;;;;;;;10.83;100.00;100338.16;5067709;28;20116;-49
2023/03/30 05:54:31;;;;;;;89.50;7.22;;;;;;;10.89;100.00;100340.03;5069425;28;20075;-48
2023/03/30 05:56:57;;;;;;;84.95;11.13;;;;;;;10.82;100.00;100353.47;5069861;28;20032;-49
2023/03/30 05:59:22;;;;;;;92.10;9.25;;;;;;;10.77;100.00;100356.75;5067438;28;20444;-49
2023/03/30 06:01:48;;;;;;;93.72;8.20;;;;;;;10.75;100.00;100353.41;5066955;28;20095;-49
2023/03/30 06:04:14;;;;;;;101.93;8.95;;;;;;;10.74;100.00;100353.59;5066733;28;20021;-48
2023/03/30 06:06:40;;;;;;;105.20;7.50;;;;;;;10.72;100.00;100359.19;5068301;28;20071;-49
2023/03/30 06:09:06;;;;;;;85.95;7.95;;;;;;;10.71;100.00;100357.50;5065888;28;20052;-48
2023/03/30 06:11:31;;;;;;;113.18;9.23;;;;;;;10.72;100.00;100361.88;5066149;28;20446;-47
2023/03/30 06:13:57;;;;;;;103.40;8.93;;;;;;;10.71;100.00;100373.66;5069017;28;20383;-49
2023/03/30 06:16:23;;;;;;;81.90;7.88;;;;;;;10.73;100.00;100360.84;5065752;28;20516;-49
2023/03/30 06:18:48;;;;;;;88.65;6.30;;;;;;;10.75;100.00;100361.47;5066605;28;20103;-50
2023/03/30 06:21:14;;;;;;;97.85;8.27;;;;;;;10.79;100.00;100380.75;5067982;28;20021;-47
2023/03/30 06:23:40;;;;;;;77.30;6.95;;;;;;;10.80;100.00;100366.28;5068421;28;20025;-48
2023/03/30 06:26:06;;;;;;;120.72;8.52;;;;;;;10.84;100.00;100381.00;5067786;28;20423;-49
2023/03/30 06:28:32;;;;;;;92.20;8.30;;;;;;;10.83;100.00;100371.28;5072348;28;20064;-50
2023/03/30 06:30:57;;;;;;;84.97;7.78;;;;;;;10.88;100.00;100381.47;5069365;28;20024;-50
2023/03/30 06:33:24;;;;;;;92.55;8.15;;;;;;;10.84;100.00;100385.56;5072993;28;20499;-50
2023/03/30 06:35:51;;;;;;;67.25;7.20;;;;;;;10.86;100.00;100388.91;5073118;28;20036;-48
2023/03/30 06:38:17;;;;;;;92.15;7.50;;;;;;;10.84;100.00;100389.06;5069836;28;20097;-47
2023/03/30 06:40:43;;;;;;;113.75;7.57;;;;;;;10.86;100.00;100402.34;5071067;28;20079;-48
2023/03/30 06:43:15;;;;;;;103.25;8.32;;;;;;;10.82;100.00;100387.59;5072825;28;20113;-49
2023/03/30 06:45:40;;;;;;;83.88;8.80;;;;;;;10.88;100.00;100394.94;5071512;28;20668;-51
2023/03/30 06:48:06;;;;;;;101.80;6.65;;;;;;;11.03;100.00;100403.72;5071109;28;20040;-48
2023/03/30 06:50:31;;;;;;;91.88;10.68;;;;;;;11.23;100.00;100403.03;5079172;28;20031;-49
2023/03/30 06:52:57;;;;;;;85.20;7.90;;;;;;;11.43;100.00;100393.22;5083861;28;20077;-48
2023/03/30 06:55:22;;;;;;;112.53;9.38;;;;;;;11.51;100.00;100425.41;5092880;28;20054;-49
2023/03/30 06:57:47;;;;;;;123.53;9.82;;;;;;;11.54;100.00;100395.34;5074849;28;20055;-50
2023/03/30 07:00:14;;;;;;;113.70;11.13;;;;;;;11.52;100.00;100386.63;5072940;28;20494;-48
2023/03/30 07:02:43;;;;;;;106.55;9.50;;;;;;;11.52;100.00;100385.81;5073005;28;20047;-52
2023/03/30 07:05:09;;;;;;;118.03;9.63;;;;;;;11.57;100.00;100389.56;5072743;28;20046;-47
2023/03/30 07:07:35;;;;;;;94.60;7.75;;;;;;;11.50;100.00;100398.66;5072820;28;20028;-49
2023/03/30 07:10:08;;;;;;;98.68;8.80;;;;;;;11.31;100.00;100394.81;5090788;28;20020;-51
2023/03/30 07:12:34;;;;;;;103.38;8.18;;;;;;;11.58;100.00;100410.09;5093466;28;20088;-48
2023/03/30 07:14:59;;;;;;;117.32;8.52;;;;;;;11.70;100.00;100399.59;5092720;28;20051;-48
2023/03/30 07:17:26;;;;;;;102.70;7.88;;;;;;;11.61;100.00;100401.63;5091169;28;20050;-48
2023/03/30 07:19:51;;;;;;;135.27;9.73;;;;;;;11.49;100.00;100424.75;5072458;28;20096;-48
2023/03/30 07:22:17;;;;;;;127.05;9.68;;;;;;;11.27;100.00;100429.41;5071312;28;20124;-48
2023/03/30 07:24:43;;;;;;;116.03;9.02;;;;;;;11.23;100.00;100419.22;5072456;28;20032;-47
2023/03/30 07:27:09;;;;;;;116.85;9.82;;;;;;;11.07;100.00;100426.56;5070964;28;20383;-49
2023/03/30 07:29:35;;;;;;;125.22;11.85;;;;;;;11.04;100.00;100436.88;5072405;28;20024;-50
2023/03/30 07:32:01;;;;;;;134.55;11.48;;;;;;;10.96;100.00;100435.16;5068688;28;20387;-48
2023/03/30 07:34:27;;;;;;;127.50;10.68;;;;;;;10.91;100.00;100451.06;5072034;28;20036;-49
2023/03/30 07:36:53;;;;;;;143.88;10.82;;;;;;;10.88;100.00;100448.78;5071773;28;20120;-48
2023/03/30 07:39:18;;;;;;;175.30;13.80;;;;;;;10.83;100.00;100443.13;5086902;28;20020;-48
2023/03/30 07:41:44;;;;;;;148.57;11.50;;;;;;;10.78;100.00;100443.69;5092300;28;20055;-48
2023/03/30 07:44:09;;;;;;;134.93;13.02;;;;;;;10.80;100.00;100454.28;5091988;28;20028;-49
2023/03/30 07:46:35;;;;;;;150.43;11.43;;;;;;;10.91;100.00;100456.47;5090857;28;20036;-49
2023/03/30 07:49:00;;;;;;;138.13;9.93;;;;;;;11.06;100.00;100446.44;5092128;28;20020;-48
2023/03/30 07:51:26;;;;;;;117.22;8.57;;;;;;;11.28;100.00;100459.88;5076247;28;20099;-49
2023/03/30 07:53:51;;;;;;;110.90;10.10;;;;;;;11.33;100.00;100462.81;5068702;28;20388;-48
2023/03/30 07:56:16;;;;;;;133.50;10.85;;;;;;;11.65;100.00;100464.88;5086591;28;20114;-48
2023/03/30 07:58:43;;;;;;;128.98;8.52;;;;;;;12.18;100.00;100444.63;5072827;28;20375;-48
2023/03/30 08:01:09;;;;;;;141.93;11.73;;;;;;;12.65;100.00;100467.19;5068849;28;20040;-50
2023/03/30 08:03:36;;;;;;;112.88;11.10;;;;;;;12.88;100.00;100437.09;5069898;28;20039;-51
2023/03/30 08:06:04;;;;;;;111.97;9.98;;;;;;;13.65;100.00;100437.47;5069702;28;20364;-48
2023/03/30 08:08:30;;;;;;;128.93;10.32;;;;;;;13.79;100.00;100425.53;5071369;28;20392;-50
2023/03/30 08:10:56;;;;;;;111.07;11.52;;;;;;;13.74;100.00;100420.78;5069687;28;20047;-49
2023/03/30 08:13:21;;;;;;;104.43;8.85;;;;;;;13.76;100.00;100420.56;5071503;28;20085;-50
2023/03/30 08:15:47;;;;;;;113.20;10.20;;;;;;;14.22;100.00;100430.38;5069659;28;20392;-48
2023/03/30 08:18:13;;;;;;;106.80;11.13;;;;;;;14.68;100.00;100430.13;5070062;28;20472;-48
2023/03/30 08:20:40;;;;;;;121.22;11.05;;;;;;;14.65;100.00;100430.56;5070176;28;20111;-49
2023/03/30 08:23:07;;;;;;;112.35;10.02;;;;;;;14.47;100.00;100428.56;5090618;28;20024;-48
2023/03/30 08:25:33;;;;;;;108.63;10.45;;;;;;;14.34;100.00;100444.06;5070643;28;20050;-48
2023/03/30 08:27:59;;;;;;;126.03;12.30;;;;;;;14.13;100.00;100459.53;5086162;28;20054;-47
2023/03/30 08:30:24;;;;;;;134.13;12.23;;;;;;;14.38;100.00;100437.16;5089507;28;20020;-48
2023/03/30 08:32:50;;;;;;;113.18;10.88;;;;;;;14.65;100.00;100435.97;5070975;28;20024;-52
2023/03/30 08:35:16;;;;;;;113.25;10.68;;;;;;;14.82;100.00;100435.44;5067899;28;20035;-49
2023/03/30 08:37:42;;;;;;;109.63;11.57;;;;;;;15.37;100.00;100438.31;5058852;28;20021;-46
2023/03/30 08:40:10;;;;;;;118.07;11.63;;;;;;;15.05;100.00;100449.22;5070932;28;20029;-51
2023/03/30 08:42:41;;;;;;;123.03;11.32;;;;;;;15.09;100.00;100447.75;5071819;28;20024;-48
2023/03/30 08:45:08;;;;;;;123.53;11.23;;;;;;;15.56;100.00;100445.44;5070274;28;20036;-46
2023/03/30 08:47:36;;;;;;;106.30;11.18;;;;;;;15.64;100.00;100465.16;5071352;28;20044;-49
2023/03/30 08:50:01;;;;;;;;;;;;;;;15.91;100.00;100458.44;5068932;28;20407;-47
2023/03/30 08:52:26;;;;;;;111.53;10.37;;;;;;;16.25;100.00;100445.28;5070501;28;19912;-48
2023/03/30 08:54:52;;;;;;;122.55;11.10;;;;;;;15.99;100.00;100466.25;5070771;28;20283;-47
2023/03/30 08:57:28;;;;;;;103.30;9.98;;;;;;;15.76;100.00;100447.94;5069142;28;20116;-49
2023/03/30 09:00:19;;;;;;;131.90;12.20;;;;;;;15.68;100.00;100466.38;5070495;28;20458;-48
2023/03/30 09:02:47;;;;;;;106.03;10.57;;;;;;;15.87;100.00;100459.09;5068918;28;20112;-50
2023/03/30 09:05:20;;;;;;;107.38;9.13;;;;;;;15.78;100.00;100467.53;5069091;28;20103;-47
2023/03/30 09:07:55;;;;;;;101.55;9.95;;;;;;;15.97;100.00;100453.97;5069267;28;20021;-48
2023/03/30 09:10:22;;;;;;;110.65;10.95;;;;;;;16.17;100.00;100462.72;5069066;28;20028;-50
2023/03/30 09:12:50;;;;;;;106.85;9.75;;;;;;;16.51;100.00;100471.25;5068962;28;20025;-47
2023/03/30 09:15:28;;;;;;;112.55;9.93;;;;;;;15.44;100.00;100474.31;5070181;28;20029;-48
2023/03/30 09:18:15;;;;;;;117.68;11.38;;;;;;;15.35;100.00;100475.69;5068918;28;20027;-49
2023/03/30 09:20:41;;;;;;;133.23;11.95;;;;;;;15.29;100.00;100471.13;5068499;28;20016;-47
2023/03/30 09:23:12;;;;;;;117.53;9.73;;;;;;;15.48;100.00;100483.69;5067912;28;20033;-49
2023/03/30 09:25:57;;;;;;;102.95;10.98;;;;;;;15.79;100.00;100468.38;5069726;28;20028;-48
2023/03/30 09:28:59;;;;;;;117.15;11.60;;;;;;;15.83;100.00;100469.59;5063883;28;20476;-48
2023/03/30 09:31:42;;;;;;;103.55;9.80;;;;;;;16.26;100.00;100479.50;5067605;28;20028;-49
2023/03/30 09:34:27;;;;;;;98.93;9.70;;;;;;;16.33;100.00;100482.97;5067834;28;20035;-49
2023/03/30 09:37:11;;;;;;;107.55;11.32;;;;;;;15.99;100.00;100479.00;5065275;28;20059;-50
2023/03/30 09:39:37;;;;;;;109.53;10.40;;;;;;;16.05;100.00;100483.53;5065511;28;20384;-48
2023/03/30 09:42:27;;;;;;;101.78;9.63;;;;;;;16.11;100.00;100479.06;5067620;28;20055;-49
2023/03/30 09:45:16;;;;;;;101.95;9.93;;;;;;;16.53;100.00;100484.59;5067849;28;20405;-48
2023/03/30 09:47:42;;;;;;;107.93;9.95;;;;;;;16.93;100.00;100490.34;5065287;28;20185;-47
2023/03/30 09:50:16;;;;;;;101.22;10.00;;;;;;;16.49;100.00;100499.72;5067193;28;20051;-47
2023/03/30 09:52:55;;;;;;;92.63;9.63;;;;;;;16.58;100.00;100499.13;5069122;28;20138;-49
2023/03/30 09:55:20;;;;;;;95.13;9.95;;;;;;;16.15;100.00;100510.16;5067805;28;20067;-50
2023/03/30 09:57:46;;;;;;;98.22;9.30;;;;;;;15.87;100.00;100514.19;5067348;28;20064;-48
2023/03/30 10:00:32;;;;;;;111.78;10.93;;;;;;;15.27;100.00;100503.03;5068289;28;20055;-50
2023/03/30 10:03:02;;;;;;;113.45;10.20;;;;;;;14.62;100.00;100522.25;5076351;28;20031;-49
2023/03/30 10:05:28;;;;;;;106.20;9.35;;;;;;;14.08;100.00;100532.41;5092937;28;20024;-50
2023/03/30 10:07:58;;;;;;;110.57;10.40;;;;;;;14.19;100.00;100545.31;5073409;28;20066;-48
2023/03/30 10:10:30;;;;;;;110.75;8.95;;;;;;;14.61;100.00;100521.44;5074007;28;20054;-49
2023/03/30 10:13:10;;;;;;;120.32;10.95;;;;;;;14.95;100.00;100538.31;5072168;28;20565;-48
2023/03/30 10:15:37;;;;;;;92.40;8.57;;;;;;;15.15;100.00;100522.75;5072180;28;20105;-48
2023/03/30 10:18:12;;;;;;;114.68;10.80;;;;;;;15.29;100.00;100528.06;5075425;28;20028;-49
2023/03/30 10:20:38;;;;;;;118.47;9.75;;;;;;;15.45;100.00;100516.66;5093997;28;20031;-48
2023/03/30 10:23:16;;;;;;;104.47;10.55;;;;;;;15.50;100.00;100507.84;5093540;28;20054;-49
2023/03/30 10:25:42;;;;;;;100.32;8.55;;;;;;;15.66;100.00;100518.13;5081129;28;20047;-49
2023/03/30 10:28:20;;;;;;;97.38;9.07;;;;;;;15.54;100.00;100520.75;5067298;28;20437;-49
2023/03/30 10:31:07;;;;;;;88.20;8.93;;;;;;;15.34;100.00;100530.94;5071331;28;20047;-48
2023/03/30 10:33:39;;;;;;;107.40;9.27;;;;;;;15.13;100.00;100535.69;5071383;28;20025;-51
2023/03/30 10:36:05;;;;;;;119.47;9.55;;;;;;;14.87;100.00;100562.94;5091469;28;20122;-47
2023/03/30 10:38:32;;;;;;;103.00;9.30;;;;;;;15.00;100.00;100543.06;5084854;28;20502;-52
2023/03/30 10:41:06;;;;;;;103.50;10.05;;;;;;;15.35;100.00;100538.03;5071670;28;20329;-49
2023/03/30 10:43:32;;;;;;;117.25;10.52;;;;;;;15.71;100.00;100550.06;5070825;28;20085;-46
2023/03/30 10:46:06;;;;;;;107.38;10.77;;;;;;;15.09;100.00;100552.63;5071442;28;20024;-47
2023/03/30 10:48:37;;;;;;;101.45;9.00;;;;;;;14.60;100.00;100536.00;5072389;28;20518;-49
2023/03/30 10:51:06;;;;;;;109.38;10.55;;;;;;;14.08;100.00;100559.47;5079203;28;20032;-48
2023/03/30 10:53:40;;;;;;;98.68;8.65;;;;;;;14.19;100.00;100555.28;5069171;28;20033;-48
2023/03/30 10:56:27;;;;;;;102.03;9.13;;;;;;;14.11;100.00;100567.16;5070250;28;20388;-49
2023/03/30 10:59:14;;;;;;;98.40;9.43;;;;;;;14.28;100.00;100559.44;5070921;28;20369;-48
2023/03/30 11:01:46;;;;;;;;;;;;;;;13.80;100.00;100557.88;5071763;28;20027;-48
2023/03/30 11:04:32;;;;;;;114.72;9.82;;;;;;;13.76;100.00;100555.81;5068681;28;19912;-50
2023/03/30 11:06:58;;;;;;;119.93;9.13;;;;;;;13.96;100.00;100561.19;5070501;28;20025;-49
2023/03/30 11:09:29;;;;;;;98.28;9.07;;;;;;;13.67;100.00;100565.19;5070575;28;20391;-48
2023/03/30 11:12:01;;;;;;;111.15;11.50;;;;;;;13.65;100.00;100561.84;5072549;28;20036;-47
2023/03/30 11:14:59;;;;;;;100.50;9.93;;;;;;;13.08;100.00;100591.06;5070215;28;20021;-48
2023/03/30 11:17:28;;;;;;;101.78;9.77;;;;;;;13.14;100.00;100583.00;5069794;28;20063;-48